NCAR-RAP Real-Time Weather Data

Output produced by METARs form (18 February 2018  02:39 UTC)
found at http://weather.rap.ucar.edu/surface/
 
Conditions at: KTYQ observed 18 February 2018  02:15 UTC
Temperature: 0.5°C (33°F)
Dewpoint: -0.1°C (32°F) [RH = 96%]
Pressure (altimeter): 30.08 inches Hg (1018.7 mb)
Winds: from the W (280 degrees) at 16 MPH (14 knots; 7.3 m/s)
gusting to 24 MPH (21 knots; 10.9 m/s)
Visibility: 10 or more miles (16+ km)
Ceiling: 1500 feet AGL
Clouds: broken clouds at 1500 feet AGL
overcast cloud deck at 2300 feet AGL
Present Weather: automated observation with no human augmentation;
there may or may not be significant weather present at this time
KTYQ 180215Z AUTO 28014G21KT 10SM BKN015 OVC023 01/00 A3008 RMK AO2 T00051001